Time;durP1;ratioP1;P1;durP2;ratioP2;P2;SDS_P1;SDS_P2;PMS_P1;PMS_P2;Temp;Humidity;BMP_temperature;BMP_pressure;BME280_temperature;BME280_humidity;BME280_pressure;Samples;Min_cycle;Max_cycle;Signal;HPM_P1;HPM_P2
2022/03/03 00:01:37;;;;;;;;;74.00;57.33;;;;;10.30;57.55;101105.56;5060121;28;45434;-82
2022/03/03 00:04:03;;;;;;;;;78.00;60.33;;;;;10.29;58.34;101106.41;5058595;28;45477;-81
2022/03/03 00:06:28;;;;;;;;;72.33;58.00;;;;;10.27;57.97;101109.03;5058681;28;45357;-79
2022/03/03 00:08:54;;;;;;;;;71.33;56.00;;;;;10.21;57.81;101090.47;5058679;28;45233;-82
2022/03/03 00:11:19;;;;;;;;;78.33;59.00;;;;;10.31;58.07;101111.69;5058396;28;45358;-81
2022/03/03 00:13:45;;;;;;;;;75.00;57.67;;;;;10.23;57.64;101087.88;5069156;28;46142;-84
2022/03/03 00:16:10;;;;;;;;;74.67;59.33;;;;;10.32;58.39;101103.81;5079897;28;45389;-83
2022/03/03 00:18:36;;;;;;;;;75.00;59.33;;;;;10.33;58.18;101089.81;5079300;28;45264;-82
2022/03/03 00:21:01;;;;;;;;;80.33;61.00;;;;;10.27;57.92;101073.91;5078841;28;45384;-82
2022/03/03 00:23:27;;;;;;;;;73.00;56.00;;;;;10.27;57.72;101071.28;5076807;28;45719;-81
2022/03/03 00:25:52;;;;;;;;;81.00;61.67;;;;;10.35;58.16;101085.44;5059890;28;45448;-82
2022/03/03 00:28:18;;;;;;;;;77.00;62.00;;;;;10.22;57.75;101062.44;5059815;28;45439;-79
2022/03/03 00:30:43;;;;;;;;;74.00;57.67;;;;;10.35;57.69;101088.09;5058740;28;45327;-79
2022/03/03 00:33:09;;;;;;;;;78.00;61.00;;;;;10.38;57.66;101082.84;5059084;28;45766;-79
2022/03/03 00:35:35;;;;;;;;;79.00;61.00;;;;;10.40;57.92;101082.88;5057865;28;45410;-78
2022/03/03 00:38:00;;;;;;;;;74.33;60.00;;;;;10.31;57.46;101070.44;5058515;28;45491;-79
2022/03/03 00:40:26;;;;;;;;;76.00;59.33;;;;;10.41;57.49;101090.78;5058545;28;45416;-80
2022/03/03 00:42:52;;;;;;;;;75.33;57.00;;;;;10.42;57.98;101089.03;5071441;28;45934;-79
2022/03/03 00:45:17;;;;;;;;;79.00;62.67;;;;;10.42;57.70;101089.03;5078375;28;45303;-81
2022/03/03 00:47:42;;;;;;;;;74.00;58.33;;;;;10.35;57.61;101082.81;5078658;28;45397;-80
2022/03/03 00:50:08;;;;;;;;;78.00;61.67;;;;;10.41;57.93;101093.41;5068761;28;45373;-79
2022/03/03 00:52:34;;;;;;;;;78.33;61.67;;;;;10.36;58.19;101086.34;5060490;28;46424;-80
2022/03/03 00:55:00;;;;;;;;;83.33;63.00;;;;;10.38;57.75;101085.47;5057822;28;45378;-82
2022/03/03 00:57:26;;;;;;;;;80.33;60.33;;;;;10.33;58.21;101081.91;5061346;28;45436;-82
2022/03/03 00:59:51;;;;;;;;;79.67;61.67;;;;;10.36;57.83;101091.59;5057988;28;45484;-83
2022/03/03 01:02:17;;;;;;;;;75.00;60.00;;;;;10.34;58.27;101104.75;5058170;28;45414;-81
2022/03/03 01:04:42;;;;;;;;;79.00;62.33;;;;;10.23;58.23;101088.78;5077602;28;45376;-82
2022/03/03 01:07:07;;;;;;;;;78.33;63.00;;;;;10.29;58.25;101098.50;5072290;28;45368;-79
2022/03/03 01:09:33;;;;;;;;;84.33;63.00;;;;;10.11;58.10;101077.16;5058053;28;45203;-79
2022/03/03 01:11:58;;;;;;;;;80.33;62.33;;;;;10.25;58.42;101102.88;5061209;28;45493;-79
2022/03/03 01:14:25;;;;;;;;;80.33;64.33;;;;;10.15;58.62;101082.50;5076028;28;45473;-79
2022/03/03 01:16:51;;;;;;;;;77.00;62.00;;;;;10.24;58.26;101100.22;5072366;28;45409;-82
2022/03/03 01:19:18;;;;;;;;;81.00;61.33;;;;;10.21;58.35;101095.72;5041793;28;45687;-82
2022/03/03 01:21:44;;;;;;;;;78.33;61.00;;;;;10.23;58.42;101101.06;5059676;28;45763;-80
2022/03/03 01:24:09;;;;;;;;;81.33;63.67;;;;;10.20;58.71;101093.09;5059921;28;45482;-82
2022/03/03 01:26:35;;;;;;;;;84.67;66.00;;;;;10.16;58.47;101084.28;5060042;28;45626;-80
2022/03/03 01:29:00;;;;;;;;;80.00;62.00;;;;;10.07;58.79;101064.81;5064193;28;45346;-82
2022/03/03 01:31:25;;;;;;;;;80.00;64.33;;;;;10.19;59.00;101086.06;5057208;28;45456;-82
2022/03/03 01:33:51;;;;;;;;;75.33;61.67;;;;;10.18;58.83;101087.81;5058783;28;45239;-82
2022/03/03 01:36:16;;;;;;;;;83.33;66.67;;;;;10.17;58.93;101085.16;5057609;28;45514;-81
2022/03/03 01:38:42;;;;;;;;;79.00;63.00;;;;;10.06;58.69;101074.47;5057718;28;45474;-80
2022/03/03 01:41:08;;;;;;;;;83.33;64.67;;;;;10.15;59.25;101089.53;5057117;28;45441;-81
2022/03/03 01:43:34;;;;;;;;;81.33;62.00;;;;;10.16;59.48;101088.66;5061959;28;45480;-81
2022/03/03 01:46:00;;;;;;;;;80.00;61.00;;;;;9.92;59.51;101053.19;5072678;28;45345;-78
2022/03/03 01:48:25;;;;;;;;;81.00;62.67;;;;;10.14;59.04;101083.34;5077617;27;45398;-82
2022/03/03 01:50:52;;;;;;;;;78.00;60.67;;;;;10.04;59.67;101065.63;5079597;28;47052;-81
2022/03/03 01:53:19;;;;;;;;;78.67;61.33;;;;;10.12;60.17;101087.69;5079895;28;45333;-81
2022/03/03 01:55:45;;;;;;;;;79.67;61.33;;;;;9.98;59.75;101057.69;5077662;28;45458;-80
2022/03/03 01:58:11;;;;;;;;;74.67;60.00;;;;;9.88;59.70;101026.81;5068916;28;45290;-81
2022/03/03 02:00:37;;;;;;;;;76.67;61.00;;;;;9.98;59.30;101019.09;5079577;28;45233;-82
2022/03/03 02:03:02;;;;;;;;;74.67;58.67;;;;;10.31;59.57;101064.31;5077570;28;45368;-81
2022/03/03 02:05:29;;;;;;;;;83.33;65.00;;;;;10.33;59.23;101063.47;5076150;28;45140;-81
2022/03/03 02:07:55;;;;;;;;;73.67;58.00;;;;;10.44;59.29;101068.88;5077812;28;45344;-82
2022/03/03 02:10:20;;;;;;;;;77.33;61.33;;;;;10.25;59.27;101023.88;5066949;28;46391;-81
2022/03/03 02:12:45;;;;;;;;;74.00;56.67;;;;;10.49;60.22;101057.53;5061186;28;45499;-82
2022/03/03 02:15:18;;;;;;;;;78.67;60.00;;;;;10.36;59.60;101031.03;5062716;28;45398;-80
2022/03/03 02:17:45;;;;;;;;;74.00;58.67;;;;;10.35;59.51;101026.63;5057550;28;45521;-83
2022/03/03 02:20:31;;;;;;;;;75.33;58.33;;;;;10.63;60.36;101064.75;5057547;28;47253;-81
2022/03/03 02:22:57;;;;;;;;;72.67;58.67;;;;;10.68;59.72;101060.41;5074837;28;45491;-82
2022/03/03 02:25:25;;;;;;;;;77.00;59.67;;;;;10.70;60.66;101054.28;5075495;28;45414;-82
2022/03/03 02:27:51;;;;;;;;;73.67;57.00;;;;;10.67;60.41;101046.34;5064848;28;45414;-82
2022/03/03 02:30:18;;;;;;;;;71.00;57.00;;;;;10.76;60.20;101053.47;5076287;28;45907;-81
2022/03/03 02:32:45;;;;;;;;;77.00;58.00;;;;;10.80;59.66;101058.81;5075888;28;45435;-81
2022/03/03 02:35:11;;;;;;;;;77.33;59.67;;;;;10.79;60.42;101053.50;5078195;28;45436;-81
2022/03/03 02:37:38;;;;;;;;;76.00;61.00;;;;;10.67;59.46;101025.25;5080877;28;45345;-79
2022/03/03 02:40:08;;;;;;;;;66.00;53.00;;;;;10.88;59.15;101057.97;5075039;28;45312;-79
2022/03/03 02:42:34;;;;;;;;;67.67;55.00;;;;;10.42;59.68;100973.16;5048657;28;45493;-82
2022/03/03 02:44:59;;;;;;;;;71.67;57.00;;;;;10.75;59.94;101028.00;5078160;28;45529;-82
2022/03/03 02:47:25;;;;;;;;;73.00;59.00;;;;;10.87;59.43;101045.69;5080268;28;45388;-83
2022/03/03 02:49:50;;;;;;;;;76.33;59.67;;;;;10.87;59.75;101049.19;5079916;28;46167;-81
2022/03/03 02:52:16;;;;;;;;;77.33;59.33;;;;;10.88;59.35;101048.31;5077850;28;45312;-81
2022/03/03 02:54:41;;;;;;;;;75.33;59.67;;;;;10.85;59.60;101033.38;5080324;28;45407;-82
2022/03/03 02:59:52;;;;;;;;;73.67;58.00;;;;;10.82;59.46;101028.06;5059387;28;45370;-83
2022/03/03 03:02:18;;;;;;;;;72.67;58.33;;;;;10.88;60.18;101043.06;5060428;28;45364;-82
2022/03/03 03:04:43;;;;;;;;;78.00;61.67;;;;;10.89;59.45;101038.66;5060360;28;45350;-82
2022/03/03 03:07:09;;;;;;;;;68.33;57.67;;;;;10.87;59.60;101033.38;5059817;28;45623;-81
2022/03/03 03:09:34;;;;;;;;;76.67;60.00;;;;;10.87;59.88;101027.22;5041436;28;47170;-76
2022/03/03 03:12:00;;;;;;;;;78.00;60.67;;;;;10.87;59.54;101030.75;5067793;28;45609;-83
2022/03/03 03:14:25;;;;;;;;;75.00;60.67;;;;;10.83;60.29;101021.94;5065301;28;45463;-82
2022/03/03 03:16:51;;;;;;;;;72.33;56.00;;;;;10.84;59.70;101020.19;5060835;28;45205;-81
2022/03/03 03:19:16;;;;;;;;;73.67;59.00;;;;;10.82;60.20;101011.38;5059556;28;45269;-83
2022/03/03 03:21:42;;;;;;;;;71.67;54.00;;;;;10.84;59.79;101007.88;5059305;28;45239;-84
2022/03/03 03:24:07;;;;;;;;;74.67;55.67;;;;;10.78;59.88;100999.03;5060633;28;45424;-81
2022/03/03 03:26:33;;;;;;;;;79.33;61.00;;;;;10.82;59.72;100992.94;5066607;28;45308;-80
2022/03/03 03:28:58;;;;;;;;;76.33;58.00;;;;;10.88;60.17;101000.88;5061798;28;46064;-80
2022/03/03 03:31:23;;;;;;;;;74.33;55.67;;;;;10.32;59.97;100923.88;5060467;28;45358;-79
2022/03/03 03:33:49;;;;;;;;;72.33;56.33;;;;;10.80;60.09;100997.31;5061132;28;45362;-83
2022/03/03 03:36:14;;;;;;;;;70.67;54.33;;;;;10.88;60.51;100998.25;5062187;28;45460;-82
2022/03/03 03:38:40;;;;;;;;;66.33;53.33;;;;;10.89;60.35;100999.13;5059876;28;46295;-81
2022/03/03 03:41:05;;;;;;;;;71.33;57.00;;;;;10.91;60.19;100998.31;5058590;28;45420;-80
2022/03/03 03:43:31;;;;;;;;;72.33;56.67;;;;;10.77;59.84;100966.53;5058534;28;45388;-77
2022/03/03 03:45:57;;;;;;;;;74.67;57.00;;;;;10.92;60.79;100997.44;5052004;28;45282;-79
2022/03/03 03:48:22;;;;;;;;;72.67;57.67;;;;;10.87;59.83;100985.94;5081603;28;46384;-80
2022/03/03 03:50:48;;;;;;;;;73.00;58.67;;;;;10.90;60.23;100993.03;5075482;28;45258;-83
2022/03/03 03:53:14;;;;;;;;;74.33;57.33;;;;;10.83;59.79;100977.13;5059722;28;45327;-82
2022/03/03 03:55:40;;;;;;;;;72.67;57.33;;;;;10.89;60.35;100988.59;5062195;28;45823;-84
2022/03/03 03:58:05;;;;;;;;;75.00;57.67;;;;;10.80;59.97;100960.41;5078882;28;46055;-82
2022/03/03 04:00:31;;;;;;;;;77.67;60.67;;;;;10.81;59.74;100967.47;5080706;28;45525;-83
2022/03/03 04:02:56;;;;;;;;;74.00;59.67;;;;;10.92;60.50;100980.72;5073451;27;45236;-80
2022/03/03 04:05:22;;;;;;;;;76.67;60.00;;;;;10.92;60.23;100980.72;5060644;28;45339;-78
2022/03/03 04:07:47;;;;;;;;;75.00;58.33;;;;;10.83;60.06;100973.63;5060293;28;45594;-81
2022/03/03 04:10:13;;;;;;;;;73.33;58.00;;;;;10.90;60.25;100985.13;5059114;28;45351;-80
2022/03/03 04:12:39;;;;;;;;;75.25;60.75;;;;;10.70;60.58;100950.63;5063159;28;45479;-80
2022/03/03 04:15:06;;;;;;;;;69.67;55.33;;;;;10.88;60.48;100971.00;5058900;28;45449;-79
2022/03/03 04:17:32;;;;;;;;;75.67;59.00;;;;;10.89;60.65;100968.41;5068387;28;45422;-77
2022/03/03 04:19:58;;;;;;;;;72.00;56.50;;;;;10.89;61.01;100967.50;5058884;28;45379;-82
2022/03/03 04:22:23;;;;;;;;;73.67;56.67;;;;;10.89;60.65;100965.78;5058806;28;45215;-82
2022/03/03 04:24:49;;;;;;;;;70.50;55.75;;;;;10.86;61.14;100949.91;5062122;28;45400;-83
2022/03/03 04:27:14;;;;;;;;;70.00;56.00;;;;;10.91;61.30;100960.53;5066363;28;45355;-85
2022/03/03 04:29:40;;;;;;;;;69.75;55.00;;;;;10.92;61.23;100960.53;5058668;28;45303;-82
2022/03/03 04:32:05;;;;;;;;;72.00;55.50;;;;;10.91;61.23;100947.34;5058319;28;45432;-81
2022/03/03 04:34:31;;;;;;;;;64.00;53.50;;;;;10.89;61.73;100951.69;5058572;28;45386;-82
2022/03/03 04:36:56;;;;;;;;;69.50;55.00;;;;;10.87;62.01;100948.16;5075237;28;45437;-83
2022/03/03 04:39:22;;;;;;;;;73.00;57.75;;;;;10.86;62.42;100939.38;5056747;28;45355;-79
2022/03/03 04:41:47;;;;;;;;;69.50;52.50;;;;;10.90;62.41;100943.81;5045695;28;45441;-76
2022/03/03 04:44:13;;;;;;;;;66.75;54.25;;;;;10.86;62.54;100926.19;5078622;28;45531;-78
2022/03/03 04:46:38;;;;;;;;;73.00;57.25;;;;;10.85;62.42;100927.94;5077726;28;47060;-77
2022/03/03 04:49:04;;;;;;;;;67.00;52.50;;;;;10.77;62.09;100907.66;5059646;28;45287;-78
2022/03/03 04:51:31;;;;;;;;;73.00;57.75;;;;;10.74;62.32;100919.06;5057800;28;45747;-80
2022/03/03 04:53:56;;;;;;;;;70.25;55.25;;;;;10.88;62.49;100937.63;5040253;28;45605;-77
2022/03/03 04:56:22;;;;;;;;;73.25;57.50;;;;;10.87;62.31;100929.72;5059017;28;46663;-81
2022/03/03 04:58:49;;;;;;;;;65.50;52.00;;;;;10.62;62.61;100895.25;5073609;28;45537;-81
2022/03/03 05:01:16;;;;;;;;;67.33;54.33;;;;;10.66;62.27;100898.78;5082176;28;45365;-79
2022/03/03 05:03:41;;;;;;;;;71.50;55.75;;;;;10.83;63.01;100926.19;5071375;28;45570;-80
2022/03/03 05:06:07;;;;;;;;;70.67;57.00;;;;;10.69;63.52;100907.59;5062042;28;46299;-81
2022/03/03 05:08:32;;;;;;;;;67.33;52.67;;;;;10.83;63.27;100931.44;5076362;28;45226;-83
2022/03/03 05:10:57;;;;;;;;;70.25;54.25;;;;;10.73;63.09;100916.44;5077531;28;45165;-82
2022/03/03 05:13:23;;;;;;;;;71.67;57.67;;;;;10.67;63.26;100901.44;5078343;28;45345;-82
2022/03/03 05:15:48;;;;;;;;;71.00;54.50;;;;;10.82;63.52;100925.31;5077936;28;47091;-80
2022/03/03 05:18:14;;;;;;;;;64.50;52.50;;;;;10.82;63.17;100933.22;5058653;28;46434;-83
2022/03/03 05:20:39;;;;;;;;;71.67;55.00;;;;;10.67;63.69;100914.59;5058316;28;45455;-80
2022/03/03 05:23:05;;;;;;;;;67.50;54.75;;;;;10.69;64.16;100915.50;5058118;28;45395;-80
2022/03/03 05:25:30;;;;;;;;;70.00;54.50;;;;;10.71;63.63;100924.31;5057775;28;46911;-78
2022/03/03 05:28:00;;;;;;;;;69.50;54.25;;;;;10.65;64.62;100911.06;5059235;28;45395;-79
2022/03/03 05:30:25;;;;;;;;;68.25;54.25;;;;;10.64;64.88;100914.59;5073521;28;45258;-83
2022/03/03 05:32:51;;;;;;;;;64.50;51.75;;;;;10.64;64.52;100919.84;5073828;28;45219;-82
2022/03/03 05:35:18;;;;;;;;;66.00;53.50;;;;;10.65;64.68;100926.88;5063396;28;45413;-81
2022/03/03 05:37:45;;;;;;;;;67.25;55.00;;;;;10.63;65.38;100915.44;5087176;28;45761;-82
2022/03/03 05:40:11;;;;;;;;;62.00;51.00;;;;;10.67;65.17;100919.00;5078998;28;45408;-82
2022/03/03 05:42:37;;;;;;;;;67.00;55.00;;;;;10.56;65.48;100910.97;5075854;28;45349;-83
2022/03/03 05:45:04;;;;;;;;;59.50;48.75;;;;;10.59;66.27;100928.56;5078500;28;45997;-83
2022/03/03 05:47:30;;;;;;;;;66.00;53.25;;;;;10.38;66.13;100892.34;5076602;28;45683;-83
2022/03/03 05:49:56;;;;;;;;;62.00;49.00;;;;;10.57;66.61;100918.00;5077188;28;45270;-81
2022/03/03 05:52:23;;;;;;;;;64.25;51.00;;;;;10.64;67.00;100927.75;5077897;28;45457;-83
2022/03/03 05:54:48;;;;;;;;;65.50;51.50;;;;;10.56;66.53;100908.34;5076648;28;47605;-81
2022/03/03 05:57:32;;;;;;;;;54.00;44.25;;;;;10.63;65.91;100931.25;5064921;28;45442;-80
2022/03/03 06:00:06;;;;;;;;;57.00;46.00;;;;;10.65;67.47;100929.53;5058391;28;45240;-81
2022/03/03 06:02:31;;;;;;;;;66.50;52.25;;;;;10.62;66.49;100918.97;5057542;28;45229;-81
2022/03/03 06:04:58;;;;;;;;;49.25;41.75;;;;;10.70;66.99;100922.56;5057499;28;45285;-81
2022/03/03 06:07:27;;;;;;;;;58.75;47.75;;;;;10.71;67.00;100920.81;5069170;28;45451;-79
2022/03/03 06:09:56;;;;;;;;;61.75;48.75;;;;;10.69;67.12;100912.84;5079196;28;45340;-79
2022/03/03 06:12:45;;;;;;;;;55.75;46.50;;;;;10.73;66.75;100924.34;5075964;28;45599;-76
2022/03/03 06:15:13;;;;;;;;;66.00;50.50;;;;;10.75;67.93;100927.84;5080183;28;46370;-79
2022/03/03 06:17:41;;;;;;;;;60.75;47.25;;;;;10.72;67.21;100918.19;5080199;28;45336;-76
2022/03/03 06:20:07;;;;;;;;;62.50;48.50;;;;;10.73;67.87;100924.34;5081024;28;45334;-77
2022/03/03 06:22:33;;;;;;;;;61.75;48.50;;;;;10.68;67.69;100919.00;5078377;28;45449;-81
2022/03/03 06:24:58;;;;;;;;;57.75;47.00;;;;;10.63;68.39;100920.72;5080105;28;46076;-79
2022/03/03 06:27:24;;;;;;;;;57.50;47.25;;;;;10.66;68.69;100928.66;5070408;28;45506;-79
2022/03/03 06:29:49;;;;;;;;;67.75;53.00;;;;;10.63;68.99;100923.34;5077904;28;45429;-78
2022/03/03 06:32:15;;;;;;;;;55.25;43.50;;;;;10.65;68.67;100928.63;5060661;28;45505;-77
2022/03/03 06:34:40;;;;;;;;;58.75;47.25;;;;;10.63;68.53;100939.16;5060081;28;45637;-76
2022/03/03 06:37:06;;;;;;;;;69.25;50.25;;;;;10.56;69.83;100926.78;5060042;28;45574;-78
2022/03/03 06:39:32;;;;;;;;;56.25;46.25;;;;;10.61;69.41;100945.25;5068229;28;45423;-81
2022/03/03 06:41:58;;;;;;;;;60.00;47.75;;;;;10.61;69.83;100940.91;5061990;28;45490;-78
2022/03/03 06:44:23;;;;;;;;;54.00;45.50;;;;;10.50;70.00;100924.97;5059587;28;46144;-78
2022/03/03 06:46:50;;;;;;;;;65.00;49.00;;;;;10.42;69.68;100912.56;5059633;28;45354;-80
2022/03/03 06:49:15;;;;;;;;;59.75;49.25;;;;;10.56;70.32;100939.97;5060363;28;45552;-77
2022/03/03 06:51:47;;;;;;;;;57.50;48.25;;;;;10.55;70.32;100930.28;5060956;28;45413;-78
2022/03/03 06:54:20;;;;;;;;;59.75;48.50;;;;;10.71;70.10;100952.41;5058206;28;47114;-80
2022/03/03 06:56:51;;;;;;;;;56.50;46.00;;;;;10.68;68.92;100950.63;5069484;28;45507;-81
2022/03/03 06:59:21;;;;;;;;;61.25;50.75;;;;;10.61;70.65;100943.53;5063532;28;45503;-79
2022/03/03 07:01:49;;;;;;;;;57.25;47.25;;;;;10.69;70.37;100954.13;5058106;28;45540;-81
2022/03/03 07:04:15;;;;;;;;;63.00;49.00;;;;;10.66;70.53;100952.34;5059222;28;46296;-76
2022/03/03 07:06:42;;;;;;;;;55.75;42.25;;;;;10.67;69.94;100951.50;5059305;28;45436;-79
2022/03/03 07:09:08;;;;;;;;;60.00;50.00;;;;;10.68;70.52;100944.47;5060646;28;45455;-77
2022/03/03 07:11:34;;;;;;;;;62.75;49.50;;;;;10.66;70.03;100944.47;5060407;28;45477;-77
2022/03/03 07:13:59;;;;;;;;;67.00;52.75;;;;;10.63;71.15;100931.25;5065768;28;45441;-78
2022/03/03 07:16:40;;;;;;;;;57.50;42.25;;;;;10.82;70.81;100951.66;5063761;28;45519;-77
2022/03/03 07:19:15;;;;;;;;;62.00;48.25;;;;;10.47;71.55;100914.41;5049782;28;45156;-81
2022/03/03 07:22:14;;;;;;;;;60.25;50.75;;;;;10.73;70.55;100955.94;5058855;28;45290;-80
2022/03/03 07:24:45;;;;;;;;;60.50;47.50;;;;;10.82;70.69;100956.03;5059662;28;46337;-80
2022/03/03 07:27:17;;;;;;;;;65.50;49.75;;;;;10.74;71.62;100949.81;5059316;28;45214;-81
2022/03/03 07:29:54;;;;;;;;;63.75;51.00;;;;;10.79;71.09;100958.63;5059350;28;45361;-79
2022/03/03 07:32:31;;;;;;;;;60.50;49.25;;;;;10.88;70.43;100955.19;5060264;28;45406;-79
2022/03/03 07:35:00;;;;;;;;;59.50;47.50;;;;;10.88;70.62;100952.56;5060131;28;46007;-80
2022/03/03 07:37:36;;;;;;;;;62.25;50.50;;;;;10.65;70.06;100894.38;5060330;28;45436;-79
2022/03/03 07:40:06;;;;;;;;;55.50;45.00;;;;;10.95;70.89;100952.63;5060648;28;45294;-80
2022/03/03 07:42:32;;;;;;;;;67.00;53.50;;;;;11.03;70.68;100952.72;5060513;28;45361;-78
2022/03/03 07:44:58;;;;;;;;;61.75;50.50;;;;;11.01;69.75;100943.91;5059946;28;46083;-79
2022/03/03 07:47:25;;;;;;;;;55.00;43.50;;;;;11.06;69.78;100956.25;5059015;28;45203;-79
2022/03/03 07:49:52;;;;;;;;;67.25;51.50;;;;;10.99;69.73;100948.31;5059047;28;45301;-78
2022/03/03 07:52:20;;;;;;;;;53.50;42.25;;;;;11.00;70.15;100945.66;5058962;28;45428;-78
2022/03/03 07:54:45;;;;;;;;;57.75;47.50;;;;;10.99;70.43;100940.38;5057801;28;45515;-83
2022/03/03 07:57:16;;;;;;;;;64.50;52.25;;;;;11.03;70.13;100944.81;5059478;28;45222;-84
2022/03/03 07:59:46;;;;;;;;;58.50;47.75;;;;;11.16;70.32;100951.06;5046203;28;45454;-84
2022/03/03 08:02:19;;;;;;;;;52.75;45.75;;;;;11.23;70.25;100955.53;5042299;28;45452;-84
2022/03/03 08:04:46;;;;;;;;;59.25;48.00;;;;;11.24;69.89;100952.88;5058153;28;45417;-84
2022/03/03 08:07:15;;;;;;;;;64.00;50.75;;;;;11.25;69.48;100945.84;5060548;28;45358;-83
2022/03/03 08:09:41;;;;;;;;;60.75;49.00;;;;;11.32;69.56;100943.28;5059951;28;45481;-84
2022/03/03 08:12:07;;;;;;;;;56.50;45.50;;;;;11.46;68.89;100943.41;5057487;28;45374;-84
2022/03/03 08:14:34;;;;;;;;;57.50;47.50;;;;;11.51;68.59;100943.41;5057580;28;45742;-85
2022/03/03 08:17:02;;;;;;;;;66.25;49.75;;;;;11.54;69.59;100941.72;5041536;28;45470;-84
2022/03/03 08:19:30;;;;;;;;;64.00;51.50;;;;;11.57;68.85;100944.34;5058879;28;45252;-81
2022/03/03 08:21:55;;;;;;;;;62.25;49.50;;;;;11.61;68.43;100946.13;5059500;28;45604;-85
2022/03/03 08:24:21;;;;;;;;;61.50;47.50;;;;;11.65;68.67;100942.66;5059396;28;46674;-85
2022/03/03 08:26:47;;;;;;;;;65.75;49.75;;;;;11.65;68.50;100934.72;5059181;28;45426;-85
2022/03/03 08:29:13;;;;;;;;;62.25;49.25;;;;;11.69;67.77;100940.91;5057850;28;45344;-86
2022/03/03 08:31:47;;;;;;;;;57.25;46.25;;;;;11.64;68.52;100943.53;5058408;28;45385;-79
2022/03/03 08:34:28;;;;;;;;;62.50;48.25;;;;;11.59;69.29;100942.59;5057241;28;45419;-81
2022/03/03 08:37:00;;;;;;;;;61.25;49.50;;;;;11.57;69.53;100930.28;5059072;28;45492;-76
2022/03/03 08:39:27;;;;;;;;;63.75;50.75;;;;;11.61;69.01;100932.06;5057584;28;45395;-80
2022/03/03 08:41:58;;;;;;;;;70.00;51.25;;;;;11.75;68.56;100938.31;5057972;28;45218;-82
2022/03/03 08:44:32;;;;;;;;;61.00;48.50;;;;;11.68;68.67;100923.31;5057906;28;46104;-81
2022/03/03 08:46:58;;;;;;;;;53.50;44.50;;;;;11.74;68.51;100931.28;5058403;28;45401;-79
2022/03/03 08:49:31;;;;;;;;;59.75;48.25;;;;;11.76;68.15;100939.19;5059869;28;45326;-85
2022/03/03 08:51:57;;;;;;;;;62.25;48.50;;;;;11.81;68.93;100951.56;5059405;28;45462;-86
2022/03/03 08:54:23;;;;;;;;;57.25;46.00;;;;;11.87;68.27;100940.16;5058721;28;47311;-85
2022/03/03 08:56:49;;;;;;;;;57.00;45.75;;;;;11.95;68.34;100939.31;5058039;28;45415;-83
2022/03/03 08:59:14;;;;;;;;;61.75;47.00;;;;;12.00;68.18;100939.34;5058071;28;45465;-86
2022/03/03 09:01:40;;;;;;;;;55.00;43.00;;;;;12.01;67.48;100922.66;5048869;28;45472;-85
2022/03/03 09:04:06;;;;;;;;;54.25;43.50;;;;;12.20;66.89;100926.25;5058145;28;45235;-83
2022/03/03 09:06:32;;;;;;;;;62.75;49.25;;;;;12.50;67.21;100955.41;5058036;28;45189;-83
2022/03/03 09:08:58;;;;;;;;;57.75;46.75;;;;;12.64;65.71;100958.06;5057855;28;45180;-84
2022/03/03 09:11:24;;;;;;;;;55.75;46.25;;;;;12.58;66.15;100962.47;5063255;28;44865;-81
2022/03/03 09:13:50;;;;;;;;;49.00;42.00;;;;;12.59;66.09;100954.53;5059681;28;45576;-85
2022/03/03 09:16:17;;;;;;;;;54.50;46.00;;;;;12.78;65.75;100961.63;5057155;28;45569;-81
2022/03/03 09:18:44;;;;;;;;;51.50;44.00;;;;;12.92;65.25;100959.00;5056876;28;45368;-80
2022/03/03 09:21:09;;;;;;;;;60.50;45.00;;;;;12.96;64.57;100954.63;5056830;28;46801;-80
2022/03/03 09:23:35;;;;;;;;;60.25;47.75;;;;;12.99;64.89;100955.47;5057794;28;45497;-81
2022/03/03 09:26:00;;;;;;;;;56.25;44.50;;;;;12.95;64.96;100948.44;5057509;28;45232;-84
2022/03/03 09:28:26;;;;;;;;;52.75;42.75;;;;;12.84;65.02;100936.94;5057598;28;45220;-82
2022/03/03 09:30:51;;;;;;;;;55.25;45.25;;;;;12.90;64.14;100931.69;5056736;28;45422;-85
2022/03/03 09:33:17;;;;;;;;;54.50;42.50;;;;;13.02;64.87;100946.66;5057827;28;46032;-84
2022/03/03 09:35:42;;;;;;;;;56.25;47.00;;;;;13.04;63.95;100948.44;5059649;28;45315;-84
2022/03/03 09:38:08;;;;;;;;;59.00;46.25;;;;;13.04;64.60;100961.69;5060200;28;45236;-84
2022/03/03 09:40:33;;;;;;;;;52.00;43.75;;;;;12.77;65.17;100951.94;5061820;28;45405;-84
2022/03/03 09:43:01;;;;;;;;;54.00;43.25;;;;;12.60;65.44;100953.66;5062385;28;45963;-85
2022/03/03 09:45:28;;;;;;;;;58.00;43.25;;;;;12.66;65.57;100950.16;5047941;28;45785;-83
2022/03/03 09:47:55;;;;;;;;;53.25;43.00;;;;;12.72;65.31;100947.50;5074219;28;44705;-83
2022/03/03 09:50:22;;;;;;;;;57.50;45.25;;;;;12.71;65.19;100946.63;5063276;28;45428;-87
2022/03/03 09:52:48;;;;;;;;;53.25;45.50;;;;;12.47;66.10;100959.78;5061216;28;45727;-86
2022/03/03 09:55:14;;;;;;;;;46.25;41.25;;;;;12.35;66.25;100955.34;5058596;28;45413;-84
2022/03/03 09:57:41;;;;;;;;;51.00;43.25;;;;;12.22;67.34;100950.91;5059147;28;45396;-88
2022/03/03 10:00:09;;;;;;;;;52.00;41.75;;;;;12.20;67.26;100950.00;5058742;28;45355;-89
2022/03/03 10:03:10;;;;;;;;;55.00;45.00;;;;;12.27;66.34;100947.38;5058498;28;46439;-86
2022/03/03 10:05:45;;;;;;;;;58.50;45.00;;;;;12.48;65.97;100953.63;5057037;28;45361;-85
2022/03/03 10:08:12;;;;;;;;;59.75;47.25;;;;;12.57;65.92;100952.78;5059135;28;45387;-85
2022/03/03 10:10:40;;;;;;;;;55.00;44.50;;;;;12.72;65.06;100955.44;5060530;28;45433;-82
2022/03/03 10:13:06;;;;;;;;;53.25;45.00;;;;;12.69;65.47;100945.75;5060751;28;45228;-86
2022/03/03 10:15:33;;;;;;;;;57.50;44.25;;;;;12.85;65.00;100951.97;5058435;28;45165;-87
2022/03/03 10:18:04;;;;;;;;;53.25;44.50;;;;;12.65;65.09;100929.88;5061043;28;45258;-88
2022/03/03 10:20:38;;;;;;;;;50.00;40.75;;;;;12.59;65.00;100957.19;5060772;28;45286;-86
2022/03/03 10:23:08;;;;;;;;;61.00;45.25;;;;;12.54;65.23;100921.91;5072583;28;45249;-85
2022/03/03 10:25:37;;;;;;;;;55.50;45.75;;;;;12.73;64.64;100955.44;5044218;28;45437;-88
2022/03/03 10:28:20;;;;;;;;;62.00;47.25;;;;;12.83;64.87;100948.41;5060857;28;45336;-88
2022/03/03 10:30:53;;;;;;;;;57.75;45.25;;;;;12.89;65.19;100944.91;5058720;28;45319;-86
2022/03/03 10:33:21;;;;;;;;;50.50;40.00;;;;;12.79;63.82;100883.19;5057960;28;45549;-86
2022/03/03 10:36:02;;;;;;;;;55.25;46.00;;;;;13.24;63.78;100942.31;5057911;28;45323;-88
2022/03/03 10:38:28;;;;;;;;;52.25;44.75;;;;;13.22;63.04;100938.81;5057963;28;45430;-88
2022/03/03 10:40:54;;;;;;;;;60.25;48.00;;;;;13.12;63.37;100925.53;5058858;28;45349;-89
2022/03/03 10:43:19;;;;;;;;;59.25;47.25;;;;;13.19;63.08;100944.94;5056808;28;47007;-88
2022/03/03 10:46:00;;;;;;;;;65.50;50.75;;;;;13.09;63.59;100946.69;5058012;28;45520;-87
2022/03/03 10:48:27;;;;;;;;;56.25;46.50;;;;;12.99;64.17;100930.81;5057890;28;45228;-89
2022/03/03 10:51:00;;;;;;;;;59.00;48.25;;;;;12.95;63.95;100940.50;5058340;28;45387;-85
2022/03/03 10:53:26;;;;;;;;;65.75;50.50;;;;;12.92;64.43;100947.53;5057590;28;46248;-87
2022/03/03 10:56:19;;;;;;;;;56.25;46.00;;;;;12.84;65.20;100950.16;5058495;28;45460;-85
2022/03/03 10:58:57;;;;;;;;;62.50;49.50;;;;;12.77;65.11;100937.84;5073966;28;45354;-87
2022/03/03 11:01:30;;;;;;;;;57.75;48.00;;;;;12.84;64.97;100934.31;5061994;28;45327;-88
2022/03/03 11:03:57;;;;;;;;;60.75;49.00;;;;;12.85;65.08;100928.16;5060371;28;46220;-85
2022/03/03 11:06:26;;;;;;;;;64.50;50.25;;;;;12.78;65.09;100942.25;5060143;28;45348;-87
2022/03/03 11:08:53;;;;;;;;;57.75;48.50;;;;;12.79;64.43;100929.03;5060434;28;45310;-88
2022/03/03 11:11:21;;;;;;;;;57.00;44.50;;;;;12.98;64.22;100935.22;5060496;28;45394;-88
2022/03/03 11:13:49;;;;;;;;;56.25;47.00;;;;;13.01;63.84;100926.41;5060210;28;47030;-87